Perch, North Carolina
Current Conditions -  °F | °C
As of 2:15 PM on Thursday 18 Dec 2014 (Local Time) from KMWK Reporting Station
Overcast Overcast  
Wind Chill: 46°   Ceiling: 8000
Heat Index: 46°   Visibility: 10mi
Dew Point: 19°   Wind: 0mph
Humidity: 35%   Direction: NA
Pressure: 30.09"   Gusts: NA
Location:  36.3244°N, 80.463°W
Report Text: KMWK 181915Z AUTO 00000KT 10SM SCT070 OVC080 08/M07 A3009 RMK AO2 T00761072
Loading
Personal Weather Stations






























Interactive Weather Map New forecast layout! Learn more

10-Day Weather Forecast

Advertisements
Track Severe Weather on mobile